Terminal Aerodrome Forecast
Issued by NWS Tulsa, OK

Home | Current Version | Previous Version | Text Only | Print | Product List | Glossary On
Versions: 1 2 3 4 5 6 7 8 9 10 11 12 13 14 15 16 17 18 19
000
FTUS44 KTSA 010500
TAFTUL
TAF
KTUL 010529Z 0106/0206 00000KT P6SM FEW090 FEW250
     FM011000 VRB03KT 4SM BR SCT005
     FM011300 VRB03KT P6SM BKN015
     FM011600 12005KT P6SM SCT025
     FM012200 12005KT P6SM SCT250=

USA.gov is the U.S. government's official web portal to all federal, state and local government web resources and services.